KEWK/EWK METAR and TAF weather

Enter ICAO airport designator
Station Type Date Time Source
KEWK METAR 2019/06/27 07:56 UTC NOAA

KEWK 270756Z AUTO 18013KT 10SM CLR 24/21 A3008 RMK AO2 SLP168 T02440206


Station Type Date Time Source
KEWK Decoded METAR 2019/06/27 07:56 UTC NOAA

Newton, Newton City/County Airport, KS, United States (KEWK) 38-03N 097-17W
Jun 27, 2019 - 03:56 AM EDT / 2019.06.27 0756 UTC
Wind: from the S (180 degrees) at 15 MPH (13 KT):0
Visibility: 10 mile(s):0
Sky conditions: clear
Temperature: 75.9 F (24.4 C)
Dew Point: 69.1 F (20.6 C)
Relative Humidity: 79%
Pressure (altimeter): 30.08 in. Hg (1018 hPa)
ob: KEWK 270756Z AUTO 18013KT 10SM CLR 24/21 A3008 RMK AO2 SLP168 T02440206
cycle: 8

Station Type Date Time Source
KEWK TAF UTC NOAA

Error!

Example: see airport list